| time (UTC) | temp F | wind direction | speed MPH | gust MPH | rain 1hr in | rain 24hr in | rain mn in | humidity % | barometer mb |
| 20260506191543 | 58 | 221 | 3.0 | 10.0 | 0.02 | 0.07 | 0.07 | 90 | 1008.0 |
| 20260506191029 | 58 | 339 | 2.0 | 7.0 | 0.03 | 0.07 | 0.07 | 90 | 1008.1 |
| 20260506190555 | 58 | 242 | 2.0 | 8.0 | 0.03 | 0.07 | 0.07 | 90 | 1008.1 |
| 20260506190042 | 58 | 214 | 2.0 | 8.0 | 0.03 | 0.07 | 0.07 | 90 | 1008.1 |
| 20260506185531 | 58 | 103 | 2.0 | 8.0 | 0.03 | 0.07 | 0.07 | 90 | 1008.1 |
| 20260506185031 | 58 | 251 | 2.0 | 8.0 | 0.03 | 0.07 | 0.07 | 90 | 1008.3 |
| 20260506184541 | 58 | 176 | 2.0 | 7.0 | 0.03 | 0.07 | 0.07 | 90 | 1008.3 |
| 20260506184031 | 58 | 257 | 1.0 | 9.0 | 0.03 | 0.06 | 0.06 | 91 | 1008.3 |
| 20260506183532 | 58 | 136 | 1.0 | 9.0 | 0.03 | 0.06 | 0.06 | 90 | 1008.3 |
| 20260506183044 | 58 | 287 | 2.0 | 10.0 | 0.03 | 0.06 | 0.06 | 90 | 1008.5 |
| 20260506182532 | 58 | 354 | 2.0 | 10.0 | 0.04 | 0.06 | 0.06 | 90 | 1008.7 |
| 20260506182032 | 58 | 42 | 2.0 | 8.0 | 0.03 | 0.05 | 0.05 | 90 | 1008.8 |
| 20260506181543 | 58 | 201 | 1.0 | 5.0 | 0.04 | 0.05 | 0.05 | 90 | 1008.6 |
| 20260506181033 | 58 | 216 | 1.0 | 5.0 | 0.03 | 0.04 | 0.04 | 89 | 1008.5 |
| 20260506180532 | 59 | 153 | 0.0 | 7.0 | 0.03 | 0.04 | 0.04 | 90 | 1008.6 |
| 20260506180044 | 59 | 164 | 1.0 | 7.0 | 0.03 | 0.04 | 0.04 | 90 | 1008.4 |
| 20260506175531 | 59 | 110 | 1.0 | 6.0 | 0.04 | 0.04 | 0.04 | 89 | 1008.3 |
| 20260506175031 | 59 | 134 | 2.0 | 10.0 | 0.04 | 0.04 | 0.04 | 89 | 1008.5 |
| 20260506174542 | 59 | 287 | 2.0 | 10.0 | 0.04 | 0.04 | 0.04 | 89 | 1008.7 |
| 20260506174035 | 59 | 75 | 1.0 | 4.0 | 0.03 | 0.03 | 0.03 | 89 | 1008.7 |
| 20260506173534 | 59 | 93 | 0.0 | 3.0 | 0.03 | 0.03 | 0.03 | 89 | 1008.9 |
| 20260506173104 | 59 | 128 | 0.0 | 4.0 | 0.02 | 0.02 | 0.02 | 88 | 1009.2 |
| 20260506172532 | 59 | 102 | 1.0 | 4.0 | 0.02 | 0.02 | 0.02 | 88 | 1009.3 |
| 20260506172031 | 59 | 92 | 1.0 | 5.0 | 0.02 | 0.02 | 0.02 | 87 | 1009.4 |
| 20260506171546 | 59 | 216 | 0.0 | 6.0 | 0.01 | 0.01 | 0.01 | 87 | 1009.4 |
| 20260506171032 | 59 | 213 | 1.0 | 6.0 | 0.01 | 0.01 | 0.01 | 86 | 1009.7 |
| 20260506170531 | 59 | 276 | 1.0 | 6.0 | 0.01 | 0.01 | 0.01 | 85 | 1009.9 |
| 20260506170103 | 60 | 238 | 2.0 | 7.0 | 0.01 | 0.01 | 0.01 | 84 | 1009.8 |
| 20260506165533 | 60 | 255 | 1.0 | 10.0 | 0.00 | 0.00 | 0.00 | 84 | 1009.7 |
| 20260506165034 | 61 | 125 | 2.0 | 10.0 | 0.00 | 0.00 | 0.00 | 82 | 1009.8 |
| 20260506164543 | 61 | 47 | 2.0 | 7.0 | 0.00 | 0.00 | 0.00 | 81 | 1009.9 |
| 20260506164034 | 62 | 225 | 2.0 | 12.0 | 0.00 | 0.00 | 0.00 | 80 | 1009.9 |
| 20260506163531 | 62 | 194 | 2.0 | 12.0 | 0.00 | 0.00 | 0.00 | 78 | 1009.9 |
| 20260506163053 | 63 | 252 | 3.0 | 12.0 | 0.00 | 0.00 | 0.00 | 77 | 1009.8 |
| 20260506162537 | 63 | 240 | 2.0 | 9.0 | 0.00 | 0.00 | 0.00 | 77 | 1009.8 |
| 20260506162031 | 63 | 226 | 2.0 | 9.0 | 0.00 | 0.00 | 0.00 | 76 | 1009.8 |
| 20260506161542 | 63 | 281 | 3.0 | 9.0 | 0.00 | 0.00 | 0.00 | 76 | 1009.8 |
| 20260506161035 | 64 | 159 | 2.0 | 10.0 | 0.00 | 0.00 | 0.00 | 75 | 1009.8 |
| 20260506160532 | 64 | 224 | 2.0 | 10.0 | 0.00 | 0.00 | 0.00 | 76 | 1009.9 |
| 20260506160042 | 64 | 205 | 1.0 | 10.0 | 0.00 | 0.00 | 0.00 | 76 | 1010.2 |
| 20260506155531 | 64 | 266 | 2.0 | 9.0 | 0.00 | 0.00 | 0.00 | 75 | 1010.2 |
| 20260506155033 | 64 | 243 | 2.0 | 9.0 | 0.00 | 0.00 | 0.00 | 75 | 1010.1 |
| 20260506154547 | 64 | 70 | 2.0 | 9.0 | 0.00 | 0.00 | 0.00 | 76 | 1010.2 |
| 20260506154031 | 63 | 250 | 3.0 | 9.0 | 0.00 | 0.00 | 0.00 | 76 | 1010.4 |
| 20260506153532 | 63 | 233 | 3.0 | 8.0 | 0.00 | 0.00 | 0.00 | 76 | 1010.5 |
| 20260506153043 | 63 | 225 | 2.0 | 11.0 | 0.00 | 0.00 | 0.00 | 76 | 1010.4 |
| 20260506152529 | 63 | 282 | 3.0 | 11.0 | 0.00 | 0.00 | 0.00 | 76 | 1010.2 |
| 20260506152033 | 64 | 172 | 2.0 | 11.0 | 0.00 | 0.00 | 0.00 | 75 | 1010.1 |
| 20260506151543 | 64 | 269 | 3.0 | 10.0 | 0.00 | 0.00 | 0.00 | 76 | 1010.1 |
| 20260506151030 | 64 | 238 | 2.0 | 10.0 | 0.00 | 0.00 | 0.00 | 76 | 1010.1 |
| 20260506150531 | 64 | 81 | 2.0 | 8.0 | 0.00 | 0.00 | 0.00 | 75 | 1010.2 |
| 20260506150043 | 64 | 226 | 3.0 | 8.0 | 0.00 | 0.00 | 0.00 | 75 | 1010.2 |
| 20260506145536 | 64 | 201 | 2.0 | 9.0 | 0.00 | 0.00 | 0.00 | 74 | 1010.1 |
| 20260506145033 | 64 | 147 | 3.0 | 11.0 | 0.00 | 0.00 | 0.00 | 74 | 1010.0 |
| 20260506144544 | 65 | 2 | 3.0 | 13.0 | 0.00 | 0.00 | 0.00 | 73 | 1010.1 |
| 20260506144033 | 65 | 190 | 2.0 | 13.0 | 0.00 | 0.00 | 0.00 | 73 | 1010.2 |
| 20260506143533 | 65 | 245 | 4.0 | 13.0 | 0.00 | 0.00 | 0.00 | 73 | 1010.2 |
| 20260506143044 | 66 | 165 | 3.0 | 13.0 | 0.00 | 0.00 | 0.00 | 72 | 1010.3 |
| 20260506142533 | 66 | 238 | 2.0 | 13.0 | 0.00 | 0.00 | 0.00 | 73 | 1010.3 |
| 20260506142031 | 65 | 250 | 4.0 | 12.0 | 0.00 | 0.00 | 0.00 | 73 | 1010.2 |
| 20260506141545 | 66 | 46 | 4.0 | 17.0 | 0.00 | 0.00 | 0.00 | 73 | 1010.2 |
| 20260506141032 | 65 | 127 | 4.0 | 17.0 | 0.00 | 0.00 | 0.00 | 73 | 1010.2 |
| 20260506140532 | 65 | 260 | 2.0 | 9.0 | 0.00 | 0.00 | 0.00 | 74 | 1010.4 |
| 20260506140043 | 65 | 213 | 3.0 | 9.0 | 0.00 | 0.00 | 0.00 | 74 | 1010.4 |
| 20260506135531 | 65 | 245 | 2.0 | 14.0 | 0.00 | 0.00 | 0.00 | 74 | 1010.6 |
| 20260506135031 | 65 | 252 | 3.0 | 14.0 | 0.00 | 0.00 | 0.00 | 74 | 1010.4 |
| 20260506134543 | 64 | 250 | 3.0 | 10.0 | 0.00 | 0.00 | 0.00 | 77 | 1010.4 |
| 20260506134031 | 64 | 264 | 3.0 | 11.0 | 0.00 | 0.00 | 0.00 | 76 | 1010.3 |
| 20260506133531 | 64 | 263 | 4.0 | 11.0 | 0.00 | 0.00 | 0.00 | 76 | 1010.3 |
| 20260506133101 | 63 | 56 | 4.0 | 11.0 | 0.00 | 0.00 | 0.00 | 77 | 1010.1 |
| 20260506132532 | 63 | 249 | 3.0 | 9.0 | 0.00 | 0.00 | 0.00 | 78 | 1010.3 |
| 20260506132035 | 63 | 337 | 2.0 | 10.0 | 0.00 | 0.00 | 0.00 | 78 | 1010.3 |
| 20260506131545 | 62 | 230 | 2.0 | 10.0 | 0.00 | 0.00 | 0.00 | 78 | 1010.3 |
| 20260506131034 | 62 | 243 | 2.0 | 9.0 | 0.00 | 0.00 | 0.00 | 78 | 1010.2 |
| 20260506130533 | 62 | 129 | 2.0 | 9.0 | 0.00 | 0.00 | 0.00 | 78 | 1010.2 |
| 20260506130044 | 63 | 297 | 2.0 | 9.0 | 0.00 | 0.00 | 0.00 | 78 | 1010.3 |
| 20260506125531 | 63 | 76 | 2.0 | 6.0 | 0.00 | 0.00 | 0.00 | 78 | 1010.3 |
| 20260506125031 | 63 | 129 | 1.0 | 9.0 | 0.00 | 0.00 | 0.00 | 79 | 1010.3 |
| 20260506124543 | 63 | 235 | 3.0 | 9.0 | 0.00 | 0.00 | 0.00 | 78 | 1010.4 |
| 20260506124031 | 63 | 221 | 2.0 | 8.0 | 0.00 | 0.00 | 0.00 | 78 | 1010.6 |
| 20260506123532 | 63 | 179 | 2.0 | 11.0 | 0.00 | 0.00 | 0.00 | 78 | 1010.7 |
| 20260506123043 | 62 | 239 | 2.0 | 11.0 | 0.00 | 0.00 | 0.00 | 79 | 1010.9 |
| 20260506122532 | 62 | 162 | 3.0 | 11.0 | 0.00 | 0.00 | 0.00 | 79 | 1011.0 |
| 20260506122032 | 62 | 243 | 3.0 | 11.0 | 0.00 | 0.00 | 0.00 | 80 | 1010.9 |
| 20260506121539 | 62 | 114 | 2.0 | 7.0 | 0.00 | 0.00 | 0.00 | 81 | 1010.8 |
| 20260506121034 | 61 | 99 | 2.0 | 6.0 | 0.00 | 0.00 | 0.00 | 80 | 1010.8 |
| 20260506120532 | 61 | 228 | 1.0 | 6.0 | 0.00 | 0.00 | 0.00 | 82 | 1010.8 |
| 20260506120045 | 60 | 224 | 2.0 | 6.0 | 0.00 | 0.00 | 0.00 | 83 | 1010.7 |
| 20260506115532 | 59 | 233 | 2.0 | 6.0 | 0.00 | 0.00 | 0.00 | 84 | 1010.7 |
| 20260506115031 | 59 | 75 | 2.0 | 5.0 | 0.00 | 0.00 | 0.00 | 84 | 1010.8 |
| 20260506114540 | 59 | 231 | 2.0 | 5.0 | 0.00 | 0.00 | 0.00 | 84 | 1010.7 |
| 20260506114032 | 59 | 247 | 1.0 | 10.0 | 0.00 | 0.00 | 0.00 | 84 | 1010.7 |
| 20260506113531 | 59 | 240 | 2.0 | 10.0 | 0.00 | 0.00 | 0.00 | 85 | 1010.7 |
| 20260506113042 | 58 | 83 | 2.0 | 6.0 | 0.00 | 0.00 | 0.00 | 86 | 1010.7 |
| 20260506112531 | 58 | 233 | 1.0 | 9.0 | 0.00 | 0.00 | 0.00 | 86 | 1010.8 |
| 20260506112029 | 57 | 289 | 1.0 | 9.0 | 0.00 | 0.00 | 0.00 | 86 | 1010.7 |
| 20260506111543 | 57 | 230 | 1.0 | 9.0 | 0.00 | 0.00 | 0.00 | 86 | 1010.8 |
| 20260506111031 | 57 | 248 | 1.0 | 5.0 | 0.00 | 0.00 | 0.00 | 87 | 1011.0 |
| 20260506110532 | 57 | 117 | 0.0 | 5.0 | 0.00 | 0.00 | 0.00 | 87 | 1011.0 |
| 20260506110043 | 57 | 301 | 1.0 | 5.0 | 0.00 | 0.00 | 0.00 | 87 | 1011.0 |
| 20260506105532 | 57 | 121 | 1.0 | 4.0 | 0.00 | 0.00 | 0.00 | 87 | 1010.9 |
| 20260506105033 | 56 | 271 | 1.0 | 4.0 | 0.00 | 0.00 | 0.00 | 88 | 1010.8 |
| 20260506104608 | 56 | 0 | 1.0 | 6.0 | 0.00 | 0.00 | 0.00 | 88 | 1010.8 |
| 20260506104034 | 56 | 237 | 1.0 | 6.0 | 0.00 | 0.00 | 0.00 | 88 | 1010.9 |
| 20260506103533 | 56 | 248 | 0.0 | 3.0 | 0.00 | 0.00 | 0.00 | 88 | 1010.9 |
| 20260506103041 | 56 | 144 | 0.0 | 3.0 | 0.00 | 0.00 | 0.00 | 89 | 1010.9 |
| 20260506102533 | 55 | 0 | 0.0 | 3.0 | 0.00 | 0.00 | 0.00 | 89 | 1010.9 |
| 20260506102032 | 55 | 115 | 0.0 | 3.0 | 0.00 | 0.00 | 0.00 | 88 | 1010.9 |
| 20260506101548 | 55 | 91 | 0.0 | 3.0 | 0.00 | 0.00 | 0.00 | 88 | 1010.8 |
| 20260506101033 | 55 | 127 | 0.0 | 3.0 | 0.00 | 0.00 | 0.00 | 88 | 1010.7 |
| 20260506100531 | 55 | 296 | 0.0 | 4.0 | 0.00 | 0.00 | 0.00 | 88 | 1010.8 |
| 20260506100045 | 55 | 0 | 0.0 | 4.0 | 0.00 | 0.00 | 0.00 | 88 | 1010.8 |
| 20260506095531 | 55 | 0 | 0.0 | 3.0 | 0.00 | 0.00 | 0.00 | 88 | 1010.7 |
| 20260506095032 | 56 | 0 | 0.0 | 6.0 | 0.00 | 0.00 | 0.00 | 87 | 1010.7 |
| 20260506094540 | 56 | 120 | 0.0 | 6.0 | 0.00 | 0.00 | 0.00 | 87 | 1010.7 |
| 20260506094032 | 56 | 238 | 1.0 | 5.0 | 0.00 | 0.00 | 0.00 | 87 | 1010.6 |
| 20260506093533 | 56 | 218 | 1.0 | 5.0 | 0.00 | 0.00 | 0.00 | 87 | 1010.6 |
| 20260506093044 | 56 | 269 | 1.0 | 4.0 | 0.00 | 0.00 | 0.00 | 87 | 1010.6 |
| 20260506092532 | 56 | 131 | 1.0 | 6.0 | 0.00 | 0.00 | 0.00 | 87 | 1010.7 |
| 20260506092033 | 56 | 60 | 0.0 | 6.0 | 0.00 | 0.00 | 0.00 | 87 | 1010.8 |
| 20260506091536 | 56 | 238 | 1.0 | 7.0 | 0.00 | 0.00 | 0.00 | 87 | 1010.7 |
| 20260506091035 | 56 | 216 | 2.0 | 7.0 | 0.00 | 0.00 | 0.00 | 87 | 1010.8 |
| 20260506090533 | 56 | 228 | 0.0 | 3.0 | 0.00 | 0.00 | 0.00 | 87 | 1010.8 |
| 20260506090047 | 56 | 243 | 0.0 | 5.0 | 0.00 | 0.00 | 0.00 | 87 | 1010.8 |
| 20260506085532 | 56 | 252 | 0.0 | 6.0 | 0.00 | 0.00 | 0.00 | 86 | 1010.9 |
| 20260506085031 | 56 | 0 | 1.0 | 6.0 | 0.00 | 0.00 | 0.00 | 86 | 1010.9 |
| 20260506084544 | 56 | 86 | 1.0 | 4.0 | 0.00 | 0.00 | 0.00 | 86 | 1011.0 |
| 20260506084033 | 56 | 236 | 0.0 | 4.0 | 0.00 | 0.00 | 0.00 | 86 | 1010.9 |
| 20260506083532 | 56 | 276 | 1.0 | 7.0 | 0.00 | 0.00 | 0.00 | 86 | 1011.0 |
| 20260506083043 | 56 | 109 | 0.0 | 7.0 | 0.00 | 0.00 | 0.00 | 86 | 1010.9 |
| 20260506082533 | 56 | 254 | 2.0 | 6.0 | 0.00 | 0.00 | 0.00 | 86 | 1010.9 |
| 20260506082032 | 56 | 248 | 1.0 | 6.0 | 0.00 | 0.00 | 0.00 | 85 | 1010.9 |
| 20260506081537 | 56 | 247 | 1.0 | 6.0 | 0.00 | 0.00 | 0.00 | 85 | 1010.9 |
| 20260506081032 | 57 | 213 | 2.0 | 8.0 | 0.00 | 0.00 | 0.00 | 85 | 1010.8 |
| 20260506080533 | 57 | 266 | 1.0 | 10.0 | 0.00 | 0.00 | 0.00 | 85 | 1010.9 |
| 20260506073042 | 57 | 27 | 1.0 | 7.0 | 0.00 | 0.00 | 0.00 | 84 | 1011.0 |
| 20260506072531 | 57 | 261 | 1.0 | 7.0 | 0.00 | 0.00 | 0.00 | 83 | 1010.9 |
| 20260506072032 | 57 | 126 | 2.0 | 6.0 | 0.00 | 0.00 | 0.00 | 84 | 1011.0 |
| 20260506071540 | 57 | 204 | 2.0 | 13.0 | 0.00 | 0.00 | 0.00 | 83 | 1011.1 |
| 20260506071032 | 57 | 206 | 1.0 | 13.0 | 0.00 | 0.00 | 0.00 | 83 | 1011.1 |
| 20260506070532 | 58 | 193 | 0.0 | 7.0 | 0.00 | 0.00 | 0.00 | 83 | 1011.1 |
| 20260506062032 | 58 | 143 | 1.0 | 8.0 | 0.00 | 0.00 | 0.00 | 82 | 1010.8 |
| 20260506061543 | 58 | 237 | 1.0 | 6.0 | 0.00 | 0.00 | 0.00 | 81 | 1010.9 |
| 20260506061034 | 58 | 227 | 2.0 | 6.0 | 0.00 | 0.00 | 0.00 | 81 | 1010.8 |
| 20260506060533 | 58 | 297 | 1.0 | 5.0 | 0.00 | 0.00 | 0.00 | 81 | 1010.9 |
| 20260506051032 | 59 | 59 | 1.0 | 5.0 | 0.00 | 0.00 | 0.00 | 79 | 1011.4 |
| 20260506050533 | 60 | 257 | 1.0 | 5.0 | 0.00 | 0.00 | 0.00 | 79 | 1011.3 |
| 20260506045031 | 60 | 206 | 1.0 | 6.0 | 0.00 | 0.00 | 0.00 | 78 | 1011.4 |
| 20260506044545 | 60 | 161 | 1.0 | 9.0 | 0.00 | 0.00 | 0.00 | 78 | 1011.3 |
| 20260506044032 | 60 | 274 | 2.0 | 9.0 | 0.00 | 0.00 | 0.00 | 78 | 1011.3 |
| 20260506043532 | 60 | 103 | 0.0 | 6.0 | 0.00 | 0.00 | 0.00 | 78 | 1011.3 |
| 20260506043052 | 60 | 205 | 1.0 | 5.0 | 0.00 | 0.00 | 0.00 | 78 | 1011.4 |
| 20260506042532 | 60 | 240 | 0.0 | 5.0 | 0.00 | 0.00 | 0.00 | 78 | 1011.3 |
| 20260506042032 | 60 | 101 | 1.0 | 5.0 | 0.00 | 0.00 | 0.00 | 77 | 1011.4 |
| 20260506041538 | 61 | 111 | 1.0 | 8.0 | 0.00 | 0.00 | 0.00 | 77 | 1011.4 |
| 20260506041033 | 61 | 116 | 0.0 | 8.0 | 0.00 | 0.00 | 0.00 | 77 | 1011.4 |
| 20260506040531 | 61 | 113 | 1.0 | 6.0 | 0.00 | 0.00 | 0.00 | 76 | 1011.4 |
| 20260506040050 | 61 | 229 | 2.0 | 6.0 | 0.00 | 0.00 | 0.00 | 76 | 1011.4 |
| 20260506035531 | 61 | 115 | 2.0 | 8.0 | 0.00 | 0.00 | 0.00 | 76 | 1011.4 |
| 20260506035032 | 61 | 118 | 1.0 | 8.0 | 0.00 | 0.00 | 0.00 | 75 | 1011.5 |
| 20260506034543 | 61 | 311 | 1.0 | 7.0 | 0.00 | 0.00 | 0.00 | 75 | 1011.4 |
| 20260506034032 | 62 | 167 | 1.0 | 9.0 | 0.00 | 0.00 | 0.00 | 74 | 1011.4 |
| 20260506033533 | 62 | 251 | 1.0 | 9.0 | 0.00 | 0.00 | 0.00 | 74 | 1011.4 |
| 20260506033039 | 62 | 73 | 1.0 | 6.0 | 0.00 | 0.00 | 0.00 | 73 | 1011.4 |
| 20260506032529 | 62 | 158 | 1.0 | 6.0 | 0.00 | 0.00 | 0.00 | 72 | 1011.5 |
| 20260506032032 | 62 | 139 | 1.0 | 5.0 | 0.00 | 0.00 | 0.00 | 72 | 1011.3 |
| 20260506031552 | 62 | 267 | 1.0 | 11.0 | 0.00 | 0.00 | 0.00 | 71 | 1011.3 |
| 20260506031029 | 62 | 162 | 3.0 | 11.0 | 0.00 | 0.00 | 0.00 | 71 | 1011.3 |
| 20260506030532 | 62 | 208 | 1.0 | 6.0 | 0.00 | 0.00 | 0.00 | 70 | 1011.3 |
| 20260506030043 | 62 | 91 | 2.0 | 10.0 | 0.00 | 0.00 | 0.00 | 70 | 1011.4 |
| 20260506025529 | 63 | 0 | 1.0 | 10.0 | 0.00 | 0.00 | 0.00 | 70 | 1011.3 |
| 20260506025033 | 63 | 245 | 2.0 | 13.0 | 0.00 | 0.00 | 0.00 | 69 | 1011.3 |
| 20260506024546 | 63 | 300 | 2.0 | 13.0 | 0.00 | 0.00 | 0.00 | 69 | 1011.3 |
| 20260506024032 | 63 | 247 | 3.0 | 12.0 | 0.00 | 0.00 | 0.00 | 69 | 1011.2 |
| 20260506023533 | 63 | 216 | 2.0 | 10.0 | 0.00 | 0.00 | 0.00 | 69 | 1011.2 |
| 20260506023054 | 63 | 66 | 3.0 | 12.0 | 0.00 | 0.00 | 0.00 | 69 | 1011.2 |
| 20260506022529 | 63 | 229 | 2.0 | 12.0 | 0.00 | 0.00 | 0.00 | 69 | 1011.3 |
| 20260506022030 | 63 | 226 | 2.0 | 8.0 | 0.00 | 0.00 | 0.00 | 69 | 1011.2 |
| 20260506021551 | 63 | 257 | 1.0 | 8.0 | 0.00 | 0.00 | 0.00 | 69 | 1011.2 |
| 20260506021028 | 62 | 208 | 2.0 | 7.0 | 0.00 | 0.00 | 0.00 | 69 | 1011.2 |
| 20260506020531 | 62 | 131 | 1.0 | 9.0 | 0.00 | 0.00 | 0.00 | 69 | 1011.1 |
| 20260506020044 | 62 | 237 | 0.0 | 9.0 | 0.00 | 0.00 | 0.00 | 70 | 1011.2 |
| 20260506015529 | 62 | 181 | 1.0 | 7.0 | 0.00 | 0.00 | 0.00 | 69 | 1011.2 |
| 20260506015032 | 62 | 91 | 1.0 | 7.0 | 0.00 | 0.00 | 0.00 | 69 | 1011.2 |
| 20260506014543 | 63 | 89 | 0.0 | 7.0 | 0.00 | 0.00 | 0.00 | 69 | 1011.1 |
| 20260506014031 | 63 | 92 | 2.0 | 7.0 | 0.00 | 0.00 | 0.00 | 68 | 1011.0 |
| 20260506013532 | 63 | 250 | 1.0 | 5.0 | 0.00 | 0.00 | 0.00 | 68 | 1010.9 |
| 20260506013045 | 63 | 128 | 1.0 | 6.0 | 0.00 | 0.00 | 0.00 | 68 | 1010.9 |
| 20260506012532 | 63 | 251 | 1.0 | 8.0 | 0.00 | 0.00 | 0.00 | 68 | 1010.8 |
| 20260506012032 | 63 | 137 | 2.0 | 11.0 | 0.00 | 0.00 | 0.00 | 68 | 1010.7 |
| 20260506011546 | 63 | 215 | 2.0 | 11.0 | 0.00 | 0.00 | 0.00 | 68 | 1010.7 |
| 20260506011032 | 63 | 252 | 2.0 | 6.0 | 0.00 | 0.00 | 0.00 | 67 | 1010.7 |
| 20260506010532 | 63 | 158 | 1.0 | 6.0 | 0.00 | 0.00 | 0.00 | 67 | 1010.6 |
| 20260506010053 | 63 | 114 | 0.0 | 8.0 | 0.00 | 0.00 | 0.00 | 67 | 1010.4 |
| 20260506005531 | 63 | 229 | 2.0 | 8.0 | 0.00 | 0.00 | 0.00 | 67 | 1010.4 |
| 20260506005031 | 63 | 82 | 1.0 | 8.0 | 0.00 | 0.00 | 0.00 | 66 | 1010.3 |
| 20260506004544 | 63 | 197 | 1.0 | 8.0 | 0.00 | 0.00 | 0.00 | 66 | 1010.3 |
| 20260506004032 | 63 | 332 | 2.0 | 10.0 | 0.00 | 0.00 | 0.00 | 66 | 1010.2 |
| 20260506003529 | 63 | 255 | 2.0 | 10.0 | 0.00 | 0.00 | 0.00 | 66 | 1010.1 |
| 20260506003043 | 63 | 131 | 1.0 | 6.0 | 0.00 | 0.00 | 0.00 | 66 | 1010.0 |
| 20260506002532 | 63 | 197 | 2.0 | 6.0 | 0.00 | 0.00 | 0.00 | 65 | 1010.0 |
| 20260506002033 | 64 | 141 | 2.0 | 7.0 | 0.00 | 0.00 | 0.00 | 65 | 1009.9 |
| 20260506001541 | 64 | 109 | 1.0 | 8.0 | 0.00 | 0.00 | 0.00 | 64 | 1009.8 |
| 20260506001029 | 64 | 214 | 1.0 | 8.0 | 0.00 | 0.00 | 0.00 | 64 | 1009.8 |
| 20260506000529 | 64 | 79 | 2.0 | 6.0 | 0.00 | 0.00 | 0.00 | 64 | 1009.8 |
| 20260506000039 | 64 | 60 | 0.0 | 6.0 | 0.00 | 0.00 | 0.00 | 64 | 1009.7 |
| 20260505235529 | 65 | 0 | 1.0 | 6.0 | 0.00 | 0.00 | 0.00 | 64 | 1009.5 |
| 20260505235031 | 65 | 225 | 2.0 | 7.0 | 0.00 | 0.00 | 0.00 | 64 | 1009.6 |
| 20260505234600 | 65 | 240 | 1.0 | 7.0 | 0.00 | 0.00 | 0.00 | 64 | 1009.5 |
| 20260505234028 | 65 | 233 | 1.0 | 7.0 | 0.00 | 0.00 | 0.00 | 63 | 1009.5 |
| 20260505233532 | 66 | 221 | 1.0 | 7.0 | 0.00 | 0.00 | 0.00 | 63 | 1009.5 |
| 20260505233047 | 66 | 188 | 1.0 | 5.0 | 0.00 | 0.00 | 0.00 | 63 | 1009.4 |
| 20260505232535 | 66 | 237 | 1.0 | 7.0 | 0.00 | 0.00 | 0.00 | 62 | 1009.5 |
| 20260505232028 | 66 | 246 | 0.0 | 7.0 | 0.00 | 0.00 | 0.00 | 62 | 1009.2 |
| 20260505231542 | 67 | 232 | 2.0 | 9.0 | 0.00 | 0.00 | 0.00 | 61 | 1009.1 |
| 20260505231029 | 67 | 79 | 2.0 | 9.0 | 0.00 | 0.00 | 0.00 | 61 | 1008.9 |
| 20260505230529 | 67 | 241 | 4.0 | 9.0 | 0.00 | 0.00 | 0.00 | 60 | 1008.9 |
| 20260505230042 | 68 | 219 | 2.0 | 7.0 | 0.00 | 0.00 | 0.00 | 60 | 1008.9 |
| 20260505225529 | 68 | 259 | 2.0 | 7.0 | 0.00 | 0.00 | 0.00 | 60 | 1008.8 |
| 20260505225029 | 68 | 138 | 2.0 | 9.0 | 0.00 | 0.00 | 0.00 | 59 | 1008.6 |
| 20260505224544 | 69 | 260 | 2.0 | 11.0 | 0.00 | 0.00 | 0.00 | 59 | 1008.6 |
| 20260505224031 | 69 | 159 | 2.0 | 11.0 | 0.00 | 0.00 | 0.00 | 58 | 1009.0 |
| 20260505223528 | 69 | 237 | 2.0 | 11.0 | 0.00 | 0.00 | 0.00 | 58 | 1009.1 |
| 20260505223057 | 69 | 234 | 3.0 | 8.0 | 0.00 | 0.00 | 0.00 | 58 | 1009.1 |
| 20260505222531 | 69 | 64 | 3.0 | 16.0 | 0.00 | 0.00 | 0.00 | 58 | 1009.1 |
| 20260505222029 | 69 | 113 | 3.0 | 16.0 | 0.00 | 0.00 | 0.00 | 57 | 1009.0 |
| 20260505221543 | 70 | 132 | 3.0 | 16.0 | 0.00 | 0.00 | 0.00 | 57 | 1009.0 |
| 20260505221029 | 70 | 240 | 2.0 | 10.0 | 0.00 | 0.00 | 0.00 | 57 | 1009.0 |
| 20260505220529 | 70 | 133 | 2.0 | 10.0 | 0.00 | 0.00 | 0.00 | 57 | 1008.9 |
| 20260505220043 | 70 | 205 | 2.0 | 9.0 | 0.00 | 0.00 | 0.00 | 57 | 1008.9 |
| 20260505215534 | 71 | 79 | 4.0 | 9.0 | 0.00 | 0.00 | 0.00 | 56 | 1008.8 |
| 20260505215032 | 71 | 293 | 4.0 | 9.0 | 0.00 | 0.00 | 0.00 | 55 | 1008.9 |
| 20260505214552 | 72 | 243 | 2.0 | 11.0 | 0.00 | 0.00 | 0.00 | 55 | 1008.7 |
| 20260505214033 | 72 | 91 | 2.0 | 11.0 | 0.00 | 0.00 | 0.00 | 56 | 1008.7 |
| 20260505213529 | 72 | 200 | 3.0 | 12.0 | 0.00 | 0.00 | 0.00 | 55 | 1008.6 |
| 20260505213045 | 71 | 86 | 2.0 | 12.0 | 0.00 | 0.00 | 0.00 | 56 | 1008.6 |
| 20260505212529 | 71 | 274 | 3.0 | 12.0 | 0.00 | 0.00 | 0.00 | 55 | 1008.6 |
| 20260505212031 | 71 | 71 | 4.0 | 11.0 | 0.00 | 0.00 | 0.00 | 56 | 1008.6 |
| 20260505211549 | 72 | 106 | 3.0 | 9.0 | 0.00 | 0.00 | 0.00 | 55 | 1008.6 |
| 20260505211028 | 72 | 267 | 2.0 | 10.0 | 0.00 | 0.00 | 0.00 | 55 | 1008.8 |
| 20260505210533 | 72 | 84 | 2.0 | 10.0 | 0.00 | 0.00 | 0.00 | 56 | 1008.8 |
| 20260505210042 | 72 | 274 | 2.0 | 11.0 | 0.00 | 0.00 | 0.00 | 55 | 1008.8 |
| 20260505205532 | 72 | 236 | 2.0 | 13.0 | 0.00 | 0.00 | 0.00 | 54 | 1008.7 |
| 20260505205032 | 73 | 89 | 3.0 | 13.0 | 0.00 | 0.00 | 0.00 | 53 | 1008.7 |
| 20260505204542 | 73 | 120 | 3.0 | 13.0 | 0.00 | 0.00 | 0.00 | 53 | 1008.6 |
| 20260505204029 | 74 | 96 | 2.0 | 10.0 | 0.00 | 0.00 | 0.00 | 54 | 1008.6 |
| 20260505203532 | 74 | 130 | 3.0 | 9.0 | 0.00 | 0.00 | 0.00 | 53 | 1008.5 |
| 20260505203051 | 74 | 311 | 2.0 | 11.0 | 0.00 | 0.00 | 0.00 | 53 | 1008.4 |
| 20260505202532 | 74 | 91 | 2.0 | 11.0 | 0.00 | 0.00 | 0.00 | 53 | 1008.7 |
| 20260505202031 | 74 | 231 | 2.0 | 12.0 | 0.00 | 0.00 | 0.00 | 53 | 1008.6 |
| 20260505201538 | 73 | 311 | 5.0 | 12.0 | 0.00 | 0.00 | 0.00 | 53 | 1008.7 |
| 20260505201032 | 74 | 242 | 2.0 | 14.0 | 0.00 | 0.00 | 0.00 | 55 | 1008.8 |
| 20260505200529 | 74 | 162 | 4.0 | 14.0 | 0.00 | 0.00 | 0.00 | 52 | 1008.8 |
| 20260505200045 | 74 | 246 | 4.0 | 14.0 | 0.00 | 0.00 | 0.00 | 54 | 1008.8 |
| 20260505195528 | 74 | 248 | 4.0 | 12.0 | 0.00 | 0.00 | 0.00 | 52 | 1009.0 |
| 20260505195033 | 74 | 259 | 4.0 | 12.0 | 0.00 | 0.00 | 0.00 | 52 | 1008.8 |
| 20260505194545 | 74 | 155 | 4.0 | 15.0 | 0.00 | 0.00 | 0.00 | 53 | 1008.6 |
| 20260505194029 | 74 | 229 | 4.0 | 15.0 | 0.00 | 0.00 | 0.00 | 53 | 1008.8 |
| 20260505193532 | 75 | 245 | 3.0 | 12.0 | 0.00 | 0.00 | 0.00 | 53 | 1009.0 |
| 20260505193042 | 75 | 218 | 3.0 | 13.0 | 0.00 | 0.00 | 0.00 | 52 | 1008.9 |
| 20260505192529 | 75 | 271 | 3.0 | 13.0 | 0.00 | 0.00 | 0.00 | 53 | 1009.0 |
| 20260505192029 | 75 | 226 | 3.0 | 8.0 | 0.00 | 0.00 | 0.00 | 53 | 1009.0 |